Time;durP1;ratioP1;P1;durP2;ratioP2;P2;SDS_P1;SDS_P2;PMS_P1;PMS_P2;Temp;Humidity;BMP_temperature;BMP_pressure;BME280_temperature;BME280_humidity;BME280_pressure;Samples;Min_cycle;Max_cycle;Signal;HPM_P1;HPM_P2
2023/02/08 00:00:42;;;;;;;1999.90;999.90;;;-3.50;99.90;;;;;;5110362;28;20461;-67
2023/02/08 00:03:08;;;;;;;1999.90;999.90;;;-3.50;99.90;;;;;;5111505;28;20500;-69
2023/02/08 00:05:35;;;;;;;1999.90;999.90;;;-3.50;99.90;;;;;;5112683;28;20441;-68
2023/02/08 00:08:02;;;;;;;1999.90;999.90;;;-3.50;99.90;;;;;;5111966;28;21067;-68
2023/02/08 00:10:30;;;;;;;1999.90;999.90;;;-3.60;99.90;;;;;;5112715;28;20480;-67
2023/02/08 00:12:57;;;;;;;1999.90;999.90;;;-3.60;99.90;;;;;;5111786;28;20445;-68
2023/02/08 00:15:24;;;;;;;1999.90;999.90;;;-3.70;99.90;;;;;;5112283;28;20449;-68
2023/02/08 00:17:51;;;;;;;1999.90;999.90;;;-3.60;99.90;;;;;;5112949;28;20469;-69
2023/02/08 00:20:18;;;;;;;1999.90;999.90;;;-3.60;99.90;;;;;;5112251;28;20438;-67
2023/02/08 00:22:45;;;;;;;1999.90;999.90;;;-3.50;99.90;;;;;;5111783;28;20448;-67
2023/02/08 00:25:12;;;;;;;1999.90;999.90;;;-3.50;99.90;;;;;;5111914;28;20445;-66
2023/02/08 00:27:40;;;;;;;1999.90;999.90;;;-3.50;99.90;;;;;;5111824;28;20468;-69
2023/02/08 00:30:09;;;;;;;1999.90;999.90;;;-3.50;99.90;;;;;;5111198;28;20442;-68
2023/02/08 00:32:35;;;;;;;1999.90;999.90;;;-3.60;99.90;;;;;;5111951;28;20458;-68
2023/02/08 00:35:02;;;;;;;1999.90;999.90;;;-3.50;99.90;;;;;;5111678;28;20448;-68
2023/02/08 00:37:29;;;;;;;1999.90;999.90;;;-3.60;99.90;;;;;;5111451;28;20469;-68
2023/02/08 00:39:57;;;;;;;1999.90;999.90;;;-3.50;99.90;;;;;;5111603;28;20456;-67
2023/02/08 00:42:25;;;;;;;1999.90;999.90;;;-3.60;99.90;;;;;;5111218;28;20974;-68
2023/02/08 00:44:53;;;;;;;1999.90;999.90;;;-3.50;99.90;;;;;;5111479;28;20864;-68
2023/02/08 00:47:20;;;;;;;1999.90;999.90;;;-3.40;99.90;;;;;;5111486;28;20861;-71
2023/02/08 00:49:47;;;;;;;1999.90;999.90;;;-3.50;99.90;;;;;;5111539;28;20449;-68
2023/02/08 00:52:13;;;;;;;1999.90;999.90;;;-3.50;99.90;;;;;;5111263;28;20488;-67
2023/02/08 00:54:41;;;;;;;1999.90;999.90;;;-3.70;99.90;;;;;;5111303;28;20452;-71
2023/02/08 00:57:08;;;;;;;1999.90;999.90;;;-3.70;99.90;;;;;;5111556;28;20542;-67
2023/02/08 00:59:34;;;;;;;1999.90;999.90;;;-3.70;99.90;;;;;;5111648;28;20449;-69
2023/02/08 01:02:02;;;;;;;1999.90;999.90;;;-3.70;99.90;;;;;;5111743;28;20452;-68
2023/02/08 01:04:29;;;;;;;1999.90;999.90;;;-3.80;99.90;;;;;;5110149;28;20456;-68
2023/02/08 01:06:56;;;;;;;1999.90;999.90;;;-3.80;99.90;;;;;;5111385;28;20465;-68
2023/02/08 01:09:23;;;;;;;1999.90;999.90;;;-4.00;99.90;;;;;;5111051;28;20448;-69
2023/02/08 01:11:50;;;;;;;1999.90;999.90;;;-4.00;99.90;;;;;;5111046;28;20481;-67
2023/02/08 01:14:17;;;;;;;1999.90;999.90;;;-4.10;99.90;;;;;;5111209;28;20441;-68
2023/02/08 01:16:44;;;;;;;1999.90;999.90;;;-4.20;99.90;;;;;;5110751;28;20469;-68
2023/02/08 01:19:12;;;;;;;1999.90;999.90;;;-4.20;99.90;;;;;;5110621;28;21154;-68
2023/02/08 01:21:40;;;;;;;1999.90;999.90;;;-4.30;99.90;;;;;;5111112;28;20445;-68
2023/02/08 01:24:08;;;;;;;1999.90;999.90;;;-4.30;99.90;;;;;;5109793;28;20459;-68
2023/02/08 01:26:35;;;;;;;1999.90;999.90;;;-4.20;99.90;;;;;;5110689;28;20461;-68
2023/02/08 01:29:03;;;;;;;1999.90;999.90;;;-4.20;99.90;;;;;;5110775;28;20441;-69
2023/02/08 01:31:32;;;;;;;1999.90;999.90;;;-4.20;99.90;;;;;;5110729;28;21006;-68
2023/02/08 01:33:59;;;;;;;1999.90;999.90;;;-4.20;99.90;;;;;;5110137;28;20456;-68
2023/02/08 01:36:29;;;;;;;1999.90;999.90;;;-4.20;99.90;;;;;;5111705;28;20457;-68
2023/02/08 01:38:56;;;;;;;1999.90;999.90;;;-4.10;99.90;;;;;;5110913;28;20454;-68
2023/02/08 01:41:25;;;;;;;1999.90;999.90;;;-4.10;99.90;;;;;;5110822;28;20444;-68
2023/02/08 01:44:04;;;;;;;1999.90;999.90;;;-4.00;99.90;;;;;;5110409;28;20445;-68
2023/02/08 01:46:31;;;;;;;1999.90;999.90;;;-4.00;99.90;;;;;;5110457;28;20476;-69
2023/02/08 01:49:01;;;;;;;1999.90;999.90;;;-4.00;99.90;;;;;;5110282;28;20449;-69
2023/02/08 01:51:34;;;;;;;1999.90;999.90;;;-4.00;99.90;;;;;;5110392;28;20512;-68
2023/02/08 01:54:04;;;;;;;1999.90;999.90;;;-4.00;99.90;;;;;;5110066;28;20488;-69
2023/02/08 01:56:35;;;;;;;1999.90;999.90;;;-4.10;99.90;;;;;;5110580;28;20472;-68
2023/02/08 01:59:06;;;;;;;1999.90;999.90;;;-4.10;99.90;;;;;;5110206;28;20438;-69
2023/02/08 02:01:33;;;;;;;1999.90;999.90;;;-4.10;99.90;;;;;;5110306;28;20429;-70
2023/02/08 02:04:03;;;;;;;1999.90;999.90;;;-4.10;99.90;;;;;;5109745;28;20433;-70
2023/02/08 02:06:34;;;;;;;1999.90;999.90;;;-4.10;99.90;;;;;;5110038;28;20980;-68
2023/02/08 02:09:09;;;;;;;1999.90;999.90;;;-4.20;99.90;;;;;;5110288;28;20433;-69
2023/02/08 02:11:36;;;;;;;1999.90;999.90;;;-4.20;99.90;;;;;;5110012;28;20469;-68
2023/02/08 02:14:04;;;;;;;1999.90;999.90;;;-4.30;99.90;;;;;;5109530;28;20448;-67
2023/02/08 02:16:30;;;;;;;1999.90;999.90;;;-4.40;99.90;;;;;;5109771;28;20459;-70
2023/02/08 02:18:57;;;;;;;1999.90;999.90;;;-4.30;99.90;;;;;;5110313;28;20444;-68
2023/02/08 02:21:43;;;;;;;1999.90;999.90;;;-4.20;99.90;;;;;;5110636;28;20442;-67
2023/02/08 02:24:46;;;;;;;1999.90;999.90;;;-4.30;99.90;;;;;;5109837;28;20437;-67
2023/02/08 02:27:26;;;;;;;1999.90;999.90;;;-4.40;99.90;;;;;;5110360;28;20459;-67
2023/02/08 02:30:11;;;;;;;1999.90;999.90;;;-4.40;99.90;;;;;;5109878;28;20544;-67
2023/02/08 02:32:50;;;;;;;1999.90;999.90;;;-4.40;99.90;;;;;;5109919;28;20511;-68
2023/02/08 02:35:25;;;;;;;1999.90;999.90;;;-4.30;99.90;;;;;;5110157;28;20417;-67
2023/02/08 02:38:04;;;;;;;1999.90;999.90;;;-4.20;99.90;;;;;;5109906;28;20476;-67
2023/02/08 02:40:37;;;;;;;1999.90;999.90;;;-4.30;99.90;;;;;;5110187;28;20456;-70
2023/02/08 02:46:00;;;;;;;1999.90;999.90;;;-4.20;99.90;;;;;;5109392;28;20444;-67
2023/02/08 02:48:37;;;;;;;1999.90;999.90;;;-4.30;99.90;;;;;;5109457;28;20437;-67
2023/02/08 02:51:09;;;;;;;1999.90;999.90;;;-4.30;99.90;;;;;;5109828;28;20558;-68
2023/02/08 02:53:48;;;;;;;1999.90;999.90;;;-4.30;99.90;;;;;;5109280;28;20443;-68
2023/02/08 02:56:18;;;;;;;1999.90;999.90;;;-4.40;99.90;;;;;;5109864;28;20522;-68
2023/02/08 02:58:45;;;;;;;1999.90;999.90;;;-4.40;99.90;;;;;;5109570;28;20477;-67
2023/02/08 03:01:12;;;;;;;1999.90;999.90;;;-4.30;99.90;;;;;;5109564;28;20482;-68
2023/02/08 03:03:41;;;;;;;1999.90;999.90;;;-4.30;99.90;;;;;;5108802;28;20449;-68
2023/02/08 03:06:13;;;;;;;1999.90;999.90;;;-4.50;99.90;;;;;;5109561;28;20946;-66
2023/02/08 03:09:05;;;;;;;1999.90;999.90;;;-4.50;99.90;;;;;;5109497;28;20650;-67
2023/02/08 03:11:34;;;;;;;1999.90;999.90;;;-4.60;99.90;;;;;;5109059;28;20480;-67
2023/02/08 03:14:23;;;;;;;1999.90;999.90;;;-4.60;99.90;;;;;;5109032;28;20437;-68
2023/02/08 03:17:10;;;;;;;1999.90;999.90;;;-4.60;99.90;;;;;;5108970;28;20464;-68
2023/02/08 03:19:42;;;;;;;1999.90;999.90;;;-4.60;99.90;;;;;;5109253;28;20794;-67
2023/02/08 03:22:14;;;;;;;1999.90;999.90;;;-4.60;99.90;;;;;;5088973;28;20453;-67
2023/02/08 03:24:49;;;;;;;1999.90;999.90;;;-4.60;99.90;;;;;;5088536;28;20438;-68
2023/02/08 03:27:23;;;;;;;1999.90;999.90;;;-4.60;99.90;;;;;;5088709;28;20458;-68
2023/02/08 03:29:55;;;;;;;1999.90;999.90;;;-4.50;99.90;;;;;;5088501;28;20442;-68
2023/02/08 03:32:26;;;;;;;1999.90;999.90;;;-4.50;99.90;;;;;;5091974;28;20504;-67
2023/02/08 03:34:57;;;;;;;1999.90;999.90;;;-4.60;99.90;;;;;;5092454;28;20805;-68
2023/02/08 03:37:27;;;;;;;1999.90;999.90;;;-4.70;99.90;;;;;;5100613;28;20465;-68
2023/02/08 03:39:58;;;;;;;1999.90;999.90;;;-4.60;99.90;;;;;;5113608;28;20437;-69
2023/02/08 03:42:29;;;;;;;1999.90;999.90;;;-4.60;99.90;;;;;;5112814;28;20437;-68
2023/02/08 03:45:01;;;;;;;1999.90;999.90;;;-4.70;99.90;;;;;;5112701;28;20445;-67
2023/02/08 03:47:31;;;;;;;1999.90;999.90;;;-4.60;99.90;;;;;;5112808;28;20458;-68
2023/02/08 03:50:03;;;;;;;1999.90;999.90;;;-4.60;99.90;;;;;;5112957;28;20453;-68
2023/02/08 03:52:32;;;;;;;1999.90;999.90;;;-4.50;99.90;;;;;;5112700;28;20853;-68
2023/02/08 03:55:03;;;;;;;1999.90;999.90;;;-4.70;99.90;;;;;;5112685;28;20453;-68
2023/02/08 03:57:35;;;;;;;1999.90;999.90;;;-4.70;99.90;;;;;;5112872;28;20445;-69
2023/02/08 04:00:05;;;;;;;1999.90;999.90;;;-4.80;99.90;;;;;;5112293;28;20818;-68
2023/02/08 04:02:37;;;;;;;1999.90;999.90;;;-4.80;99.90;;;;;;5111922;28;20445;-67
2023/02/08 04:05:07;;;;;;;1999.90;999.90;;;-4.80;99.90;;;;;;5112053;28;20476;-70
2023/02/08 04:07:34;;;;;;;1999.90;999.90;;;-4.90;99.90;;;;;;5112093;28;20461;-69
2023/02/08 04:10:01;;;;;;;1999.90;999.90;;;-4.90;99.90;;;;;;5112203;28;20445;-68
2023/02/08 04:12:27;;;;;;;1999.90;999.90;;;-5.00;99.90;;;;;;5111368;28;20473;-68
2023/02/08 04:14:54;;;;;;;1999.90;999.90;;;-5.00;99.90;;;;;;5112102;28;20438;-68
2023/02/08 04:17:21;;;;;;;1999.90;999.90;;;-5.00;99.90;;;;;;5111197;28;20784;-69
2023/02/08 04:19:47;;;;;;;1999.90;999.90;;;-5.00;99.90;;;;;;5112051;28;20927;-67
2023/02/08 04:22:16;;;;;;;1999.90;999.90;;;-5.00;99.90;;;;;;5111787;28;20432;-70
2023/02/08 04:24:42;;;;;;;1999.90;999.90;;;-5.00;99.90;;;;;;5111518;28;20929;-68
2023/02/08 04:27:09;;;;;;;1999.90;999.90;;;-4.90;99.90;;;;;;5111721;28;20477;-68
2023/02/08 04:29:36;;;;;;;1999.90;999.90;;;-5.00;99.90;;;;;;5111569;28;20449;-68
2023/02/08 04:32:03;;;;;;;1999.90;999.90;;;-5.10;99.90;;;;;;5111315;28;20484;-69
2023/02/08 04:34:30;;;;;;;1999.90;999.90;;;-5.00;99.90;;;;;;5111018;28;20433;-67
2023/02/08 04:36:57;;;;;;;1999.90;999.90;;;-5.10;99.90;;;;;;5110930;28;20465;-68
2023/02/08 04:39:25;;;;;;;1999.90;999.90;;;-5.10;99.90;;;;;;5111092;28;20445;-71
2023/02/08 04:41:52;;;;;;;1999.90;999.90;;;-5.20;99.90;;;;;;5111032;28;20429;-68
2023/02/08 04:44:19;;;;;;;1999.90;999.90;;;-5.10;99.90;;;;;;5110826;28;20433;-68
2023/02/08 04:46:45;;;;;;;1999.90;999.90;;;-5.00;99.90;;;;;;5110609;28;20468;-68
2023/02/08 04:49:12;;;;;;;1999.90;999.90;;;-5.00;99.90;;;;;;5111141;28;20437;-68
2023/02/08 04:51:39;;;;;;;1999.90;999.90;;;-5.10;99.90;;;;;;5111334;28;20477;-68
2023/02/08 04:54:06;;;;;;;1999.90;999.90;;;-5.20;99.90;;;;;;5110824;28;20459;-68
2023/02/08 04:56:34;;;;;;;1999.90;999.90;;;-5.20;99.90;;;;;;5111045;28;21063;-68
2023/02/08 04:59:01;;;;;;;1999.90;999.90;;;-5.20;99.90;;;;;;5110876;28;20843;-70
2023/02/08 05:01:28;;;;;;;1999.90;999.90;;;-5.20;99.90;;;;;;5110940;28;20797;-68
2023/02/08 05:03:54;;;;;;;1999.90;999.90;;;-5.10;99.90;;;;;;5111276;28;20476;-68
2023/02/08 05:06:21;;;;;;;1999.90;999.90;;;-5.10;99.90;;;;;;5111019;28;20818;-68
2023/02/08 05:08:48;;;;;;;1999.90;999.90;;;-5.20;99.90;;;;;;5111377;28;20436;-68
2023/02/08 05:11:20;;;;;;;1999.90;999.90;;;-5.20;99.90;;;;;;5111085;28;20448;-68
2023/02/08 05:13:48;;;;;;;1999.90;999.90;;;-5.20;99.90;;;;;;5110886;28;20471;-67
2023/02/08 05:16:15;;;;;;;1999.90;999.90;;;-5.20;99.90;;;;;;5110981;28;20458;-68
2023/02/08 05:18:42;;;;;;;1999.90;999.90;;;-5.20;99.90;;;;;;5109718;28;20465;-68
2023/02/08 05:21:08;;;;;;;1999.90;999.90;;;-5.20;99.90;;;;;;5110080;28;20437;-68
2023/02/08 05:23:36;;;;;;;1999.90;999.90;;;-5.10;99.90;;;;;;5109998;28;20425;-67
2023/02/08 05:26:06;;;;;;;1999.90;999.90;;;-5.20;99.90;;;;;;5110381;28;20461;-67
2023/02/08 05:28:33;;;;;;;1999.90;999.90;;;-5.20;99.90;;;;;;5110499;28;20441;-67
2023/02/08 05:31:09;;;;;;;1999.90;999.90;;;-5.20;99.90;;;;;;5110085;28;20953;-68
2023/02/08 05:33:36;;;;;;;1999.90;999.90;;;-5.20;99.90;;;;;;5110076;28;20473;-69
2023/02/08 05:36:02;;;;;;;1999.90;999.90;;;-5.30;99.90;;;;;;5109685;28;20465;-67
2023/02/08 05:38:29;;;;;;;1999.90;999.90;;;-5.20;99.90;;;;;;5110485;28;20444;-69
2023/02/08 05:40:56;;;;;;;1999.90;999.90;;;-5.30;99.90;;;;;;5110676;28;20526;-68
2023/02/08 05:43:23;;;;;;;1999.90;999.90;;;-5.30;99.90;;;;;;5110047;28;20436;-67
2023/02/08 05:45:50;;;;;;;1999.90;999.90;;;-5.20;99.90;;;;;;5110623;28;20463;-68
2023/02/08 05:48:18;;;;;;;1999.90;999.90;;;-5.30;99.90;;;;;;5110277;28;20441;-67
2023/02/08 05:50:45;;;;;;;1999.90;999.90;;;-5.30;99.90;;;;;;5107850;28;20449;-67
2023/02/08 05:53:12;;;;;;;1999.90;999.90;;;-5.30;99.90;;;;;;5105700;28;20480;-68
2023/02/08 05:55:39;;;;;;;1999.90;999.90;;;-5.40;99.90;;;;;;5108929;28;20434;-68
2023/02/08 05:58:05;;;;;;;1999.90;999.90;;;-5.50;99.90;;;;;;5110042;27;20926;-67
2023/02/08 06:00:32;;;;;;;1999.90;999.90;;;-5.30;99.90;;;;;;5109714;28;20438;-67
2023/02/08 06:02:59;;;;;;;1999.90;999.90;;;-5.20;99.90;;;;;;5110902;28;20946;-67
2023/02/08 06:05:27;;;;;;;1999.90;999.90;;;-5.20;99.90;;;;;;5110823;28;20437;-68
2023/02/08 06:07:54;;;;;;;1999.90;999.90;;;-5.30;99.90;;;;;;5109708;28;20500;-68
2023/02/08 06:10:21;;;;;;;1999.90;999.90;;;-5.40;99.90;;;;;;5110020;28;20460;-67
2023/02/08 06:12:47;;;;;;;1999.90;999.90;;;-5.50;99.90;;;;;;5108815;28;20480;-66
2023/02/08 06:15:14;;;;;;;1999.90;999.90;;;-5.40;99.90;;;;;;5107799;28;20452;-69
2023/02/08 06:17:41;;;;;;;1999.90;999.90;;;-5.40;99.90;;;;;;5107137;28;20469;-67
2023/02/08 06:20:08;;;;;;;1999.90;999.90;;;-5.40;99.90;;;;;;5107311;28;20441;-68
2023/02/08 06:22:37;;;;;;;1999.90;999.90;;;-5.40;99.90;;;;;;5109213;28;20437;-67
2023/02/08 06:25:04;;;;;;;1999.90;999.90;;;-5.40;99.90;;;;;;5109287;28;20441;-67
2023/02/08 06:27:31;;;;;;;1999.90;999.90;;;-5.40;99.90;;;;;;5109609;28;20480;-67
2023/02/08 06:29:58;;;;;;;1999.90;999.90;;;-5.30;99.90;;;;;;5109476;28;20445;-67
2023/02/08 06:32:25;;;;;;;1999.90;999.90;;;-5.30;99.90;;;;;;5108508;28;20473;-68
2023/02/08 06:34:51;;;;;;;1999.90;999.90;;;-5.40;99.90;;;;;;5108269;28;20863;-67
2023/02/08 06:37:19;;;;;;;1999.90;999.90;;;-5.40;99.90;;;;;;5108962;28;20465;-68
2023/02/08 06:39:47;;;;;;;1999.90;999.90;;;-5.30;99.90;;;;;;5109382;28;20471;-68
2023/02/08 06:42:14;;;;;;;1999.90;999.90;;;-5.40;99.90;;;;;;5109072;28;20450;-68
2023/02/08 06:44:41;;;;;;;1999.90;999.90;;;-5.40;99.90;;;;;;5108612;28;20449;-68
2023/02/08 06:47:07;;;;;;;1999.90;999.90;;;-5.50;99.90;;;;;;5108619;28;21004;-66
2023/02/08 06:49:34;;;;;;;1999.90;999.90;;;-5.40;99.90;;;;;;5109129;28;20441;-66
2023/02/08 06:52:01;;;;;;;1999.90;999.90;;;-5.40;99.90;;;;;;5108152;28;20449;-67
2023/02/08 06:54:28;;;;;;;1999.90;999.90;;;-5.40;99.90;;;;;;5109219;28;20433;-67
2023/02/08 06:56:56;;;;;;;1999.90;999.90;;;-5.40;99.90;;;;;;5108962;28;20836;-66
2023/02/08 06:59:23;;;;;;;1999.90;999.90;;;-5.50;99.90;;;;;;5109242;28;20454;-66
2023/02/08 07:01:50;;;;;;;1999.90;999.90;;;-5.30;99.90;;;;;;5108952;28;20544;-67
2023/02/08 07:04:16;;;;;;;1999.90;999.90;;;-5.40;99.90;;;;;;5109151;28;20540;-66
2023/02/08 07:06:43;;;;;;;1999.90;999.90;;;-5.40;99.90;;;;;;5108934;28;20550;-68
2023/02/08 07:09:10;;;;;;;1999.90;999.90;;;-5.30;99.90;;;;;;5109146;28;21063;-66
2023/02/08 07:11:37;;;;;;;1999.90;999.90;;;-5.20;99.90;;;;;;5109090;28;20438;-66
2023/02/08 07:14:05;;;;;;;1999.90;999.90;;;-5.20;99.90;;;;;;5108706;28;20485;-67
2023/02/08 07:16:32;;;;;;;1999.90;999.90;;;-5.30;99.90;;;;;;5108783;28;20457;-66
2023/02/08 07:18:59;;;;;;;1999.90;999.90;;;-5.20;99.90;;;;;;5108875;28;20437;-67
2023/02/08 07:21:26;;;;;;;1999.90;999.90;;;-5.20;99.90;;;;;;5110327;28;20435;-67
2023/02/08 07:23:53;;;;;;;1999.90;999.90;;;-5.10;99.90;;;;;;5111859;28;20453;-66
2023/02/08 07:26:20;;;;;;;1999.90;999.90;;;-5.00;99.90;;;;;;5126325;28;20991;-67
2023/02/08 07:28:46;;;;;;;1999.90;999.90;;;-5.00;99.90;;;;;;5121111;28;20906;-67
2023/02/08 07:31:16;;;;;;;1999.90;999.90;;;-5.00;99.90;;;;;;5120922;27;20469;-68
2023/02/08 07:33:44;;;;;;;1999.90;999.90;;;-4.80;99.90;;;;;;5108586;28;20484;-67
2023/02/08 07:36:11;;;;;;;1999.90;999.90;;;-4.80;99.90;;;;;;5108354;28;20444;-67
2023/02/08 07:38:38;;;;;;;1999.90;999.90;;;-4.70;99.90;;;;;;5106033;28;20445;-66
2023/02/08 07:41:07;;;;;;;1999.90;999.90;;;-4.60;99.90;;;;;;5108434;28;20516;-67
2023/02/08 07:43:35;;;;;;;1999.90;999.90;;;-4.60;99.90;;;;;;5108147;28;20445;-66
2023/02/08 07:46:06;;;;;;;1999.90;999.90;;;-4.40;99.90;;;;;;5108241;28;21024;-66
2023/02/08 07:48:34;;;;;;;1999.90;999.90;;;-4.30;99.90;;;;;;5108358;28;20915;-67
2023/02/08 07:51:01;;;;;;;1999.90;999.90;;;-4.30;99.90;;;;;;5107612;28;20438;-66
2023/02/08 07:53:28;;;;;;;1999.90;999.90;;;-4.10;99.90;;;;;;5107967;28;20475;-66
2023/02/08 07:55:55;;;;;;;1999.90;999.90;;;-4.00;99.90;;;;;;5108396;28;20937;-66
2023/02/08 07:58:22;;;;;;;1999.90;999.90;;;-3.80;99.90;;;;;;5108389;28;20433;-66
2023/02/08 08:00:49;;;;;;;1999.90;999.90;;;-3.60;99.90;;;;;;5108674;28;20441;-67
2023/02/08 08:03:16;;;;;;;1999.90;999.90;;;-3.40;99.90;;;;;;5108306;28;20449;-66
2023/02/08 08:05:45;;;;;;;1999.90;999.90;;;-3.30;99.90;;;;;;5108290;28;20816;-67
2023/02/08 08:08:12;;;;;;;1999.90;999.90;;;-3.30;99.90;;;;;;5108542;28;20447;-67
2023/02/08 08:10:39;;;;;;;1999.90;999.90;;;-3.10;99.90;;;;;;5108524;28;20536;-67
2023/02/08 08:13:06;;;;;;;1999.90;999.90;;;-3.00;99.90;;;;;;5107951;28;21006;-67
2023/02/08 08:15:33;;;;;;;1999.90;999.90;;;-2.90;99.90;;;;;;5108455;28;20954;-67
2023/02/08 08:18:00;;;;;;;1999.90;999.90;;;-2.80;99.90;;;;;;5109696;28;20457;-67
2023/02/08 08:20:27;;;;;;;1999.90;999.90;;;-2.70;99.90;;;;;;5112272;28;20444;-67
2023/02/08 08:22:55;;;;;;;1999.90;999.90;;;-2.50;99.90;;;;;;5111639;28;20998;-67
2023/02/08 08:25:22;;;;;;;1999.90;999.90;;;-2.30;99.90;;;;;;5112368;28;20803;-67
2023/02/08 08:27:49;;;;;;;1999.90;999.90;;;-2.10;99.90;;;;;;5111868;28;21313;-68
2023/02/08 08:30:17;;;;;;;1999.90;999.90;;;-2.00;99.90;;;;;;5111659;28;20449;-66
2023/02/08 08:32:44;;;;;;;1999.90;999.90;;;-1.80;99.90;;;;;;5111514;28;20437;-67
2023/02/08 08:35:11;;;;;;;1999.90;999.90;;;-1.60;99.90;;;;;;5111973;28;21010;-67
2023/02/08 08:37:38;;;;;;;1999.90;999.90;;;-1.40;99.90;;;;;;5112484;28;20461;-67
2023/02/08 08:40:08;;;;;;;1999.90;999.90;;;-1.20;99.90;;;;;;5112141;28;20813;-67
2023/02/08 08:42:36;;;;;;;1999.90;999.90;;;-1.10;99.90;;;;;;5111372;28;20919;-67
2023/02/08 08:45:04;;;;;;;1999.90;999.90;;;-0.90;99.90;;;;;;5111952;28;20440;-67
2023/02/08 08:47:30;;;;;;;1999.90;999.90;;;-0.80;99.90;;;;;;5110989;28;20767;-66
2023/02/08 08:49:57;;;;;;;1999.90;999.90;;;-0.70;99.90;;;;;;5112300;28;20455;-67
2023/02/08 08:52:24;;;;;;;1999.90;999.90;;;-0.50;99.90;;;;;;5111610;28;21039;-67
2023/02/08 08:54:51;;;;;;;1999.90;999.90;;;-0.30;99.90;;;;;;5111804;28;20777;-68
2023/02/08 08:57:19;;;;;;;1999.90;999.90;;;-0.30;99.90;;;;;;5112082;28;20985;-67
2023/02/08 08:59:46;;;;;;;1999.90;999.90;;;0.00;99.90;;;;;;5111596;28;20459;-66
2023/02/08 09:02:14;;;;;;;1999.90;999.90;;;0.20;99.90;;;;;;5112068;28;20552;-66
2023/02/08 09:04:41;;;;;;;1999.90;999.90;;;0.40;99.90;;;;;;5111977;28;20437;-67
2023/02/08 09:07:09;;;;;;;1999.90;999.90;;;0.50;99.90;;;;;;5111816;28;20961;-67
2023/02/08 09:09:36;;;;;;;1999.90;999.90;;;0.50;99.90;;;;;;5112233;28;20426;-67
2023/02/08 09:12:04;;;;;;;1999.90;999.90;;;0.60;99.90;;;;;;5111838;28;20446;-67
2023/02/08 09:14:32;;;;;;;1999.90;999.90;;;0.50;99.90;;;;;;5110835;28;20835;-68
2023/02/08 09:17:00;;;;;;;1999.90;999.90;;;0.70;99.90;;;;;;5111719;28;20461;-68
2023/02/08 09:19:27;;;;;;;1999.90;999.90;;;1.00;99.90;;;;;;5111217;28;20911;-67
2023/02/08 09:21:54;;;;;;;1999.90;999.90;;;1.40;99.90;;;;;;5111631;28;20450;-67
2023/02/08 09:24:21;;;;;;;1999.90;999.90;;;1.50;99.90;;;;;;5111239;28;20432;-66
2023/02/08 09:26:48;;;;;;;1999.90;999.90;;;1.80;99.90;;;;;;5111576;28;20827;-66
2023/02/08 09:29:15;;;;;;;1999.90;999.90;;;2.20;99.90;;;;;;5110897;28;20453;-69
2023/02/08 09:31:43;;;;;;;1999.90;999.90;;;2.60;99.90;;;;;;5111210;28;20813;-66
2023/02/08 09:34:10;;;;;;;1999.90;999.90;;;2.70;99.90;;;;;;5111323;28;20477;-67
2023/02/08 09:36:39;;;;;;;1999.90;999.90;;;2.60;99.90;;;;;;5111323;28;20984;-67
2023/02/08 09:39:11;;;;;;;1999.90;999.90;;;2.60;99.90;;;;;;5111191;28;20441;-68
2023/02/08 09:42:01;;;;;;;1999.90;999.90;;;2.80;99.90;;;;;;5111448;28;20437;-67
2023/02/08 09:44:36;;;;;;;1999.90;999.90;;;2.80;99.90;;;;;;5110646;28;20440;-66
2023/02/08 09:47:14;;;;;;;1999.90;999.90;;;3.10;99.90;;;;;;5110441;28;20468;-66
2023/02/08 09:49:56;;;;;;;1999.90;999.90;;;3.50;99.90;;;;;;5111111;28;20447;-68
2023/02/08 09:52:27;;;;;;;1999.90;999.90;;;3.80;99.90;;;;;;5110376;28;20832;-67
2023/02/08 09:54:58;;;;;;;1999.90;999.90;;;4.20;99.90;;;;;;5110681;28;21205;-68
2023/02/08 09:57:31;;;;;;;1999.90;999.90;;;4.30;99.90;;;;;;5110811;28;21094;-67
2023/02/08 10:00:02;;;;;;;1999.90;999.90;;;4.80;99.90;;;;;;5110409;28;20951;-67
2023/02/08 10:02:32;;;;;;;1999.90;999.90;;;4.80;99.90;;;;;;5110906;28;20499;-69
2023/02/08 10:05:02;;;;;;;1999.90;999.90;;;4.70;98.70;;;;;;5110507;28;20441;-68
2023/02/08 10:07:31;;;;;;;1999.90;999.90;;;4.50;99.30;;;;;;5110455;28;20463;-69
2023/02/08 10:10:00;;;;;;;1999.90;999.90;;;4.20;98.80;;;;;;5109686;28;20441;-67
2023/02/08 10:12:37;;;;;;;1999.90;999.90;;;3.90;98.40;;;;;;5109198;28;20430;-70
2023/02/08 10:15:16;;;;;;;1999.90;999.90;;;3.70;98.00;;;;;;5108316;28;20996;-68
2023/02/08 10:18:01;;;;;;;1999.90;999.90;;;3.90;98.80;;;;;;5111553;28;21118;-68
2023/02/08 10:20:40;;;;;;;1999.90;999.90;;;4.30;98.90;;;;;;5105462;28;20429;-68
2023/02/08 10:23:23;;;;;;;1999.90;999.90;;;5.20;99.20;;;;;;5105386;28;20429;-66
2023/02/08 10:26:04;;;;;;;1999.90;999.90;;;6.00;96.10;;;;;;5108436;28;20445;-65
2023/02/08 10:28:54;;;;;;;1999.90;999.90;;;6.10;94.20;;;;;;5111114;28;20437;-69
2023/02/08 10:31:31;;;;;;;1999.90;999.90;;;6.70;94.70;;;;;;5110665;28;20445;-67
2023/02/08 10:34:03;;;;;;;1999.90;999.90;;;7.50;93.00;;;;;;5110189;28;20587;-66
2023/02/08 10:36:33;;;;;;;1999.90;999.90;;;7.50;90.80;;;;;;5110321;28;20476;-66
2023/02/08 10:39:02;;;;;;;1999.90;999.90;;;7.90;92.10;;;;;;5110023;28;20452;-68
2023/02/08 10:41:36;;;;;;;1999.90;999.90;;;7.70;86.30;;;;;;5109697;28;20452;-68
2023/02/08 10:44:13;;;;;;;1999.90;999.90;;;6.90;88.60;;;;;;5109661;28;20440;-67
2023/02/08 10:46:46;;;;;;;1999.90;999.90;;;6.80;90.50;;;;;;5109638;28;20468;-68
2023/02/08 10:49:21;;;;;;;1999.90;999.90;;;7.20;91.50;;;;;;5109692;28;20445;-68
2023/02/08 10:51:48;;;;;;;1999.90;999.90;;;7.60;90.80;;;;;;5109976;28;20528;-66
2023/02/08 10:54:16;;;;;;;1999.90;999.90;;;8.20;90.90;;;;;;5110113;28;20469;-68
2023/02/08 10:56:47;;;;;;;1999.90;999.90;;;8.50;87.60;;;;;;5110444;28;20461;-68
2023/02/08 10:59:18;;;;;;;1999.90;999.90;;;8.40;85.20;;;;;;5109938;28;20821;-69
2023/02/08 11:01:47;;;;;;;1999.90;999.90;;;8.00;83.00;;;;;;5110224;28;20445;-66
2023/02/08 11:04:15;;;;;;;1999.90;999.90;;;8.30;85.60;;;;;;5109139;28;20495;-67
2023/02/08 11:06:44;;;;;;;1999.90;999.90;;;9.20;87.50;;;;;;5109757;28;20466;-66
2023/02/08 11:09:23;;;;;;;1999.90;999.90;;;9.40;81.30;;;;;;5110030;28;20433;-67
2023/02/08 11:11:51;;;;;;;1999.90;999.90;;;10.20;81.10;;;;;;5109442;28;20445;-67
2023/02/08 11:14:22;;;;;;;1999.90;999.90;;;10.70;78.80;;;;;;5109315;28;20484;-66
2023/02/08 11:16:51;;;;;;;1999.90;999.90;;;11.50;76.90;;;;;;5109599;28;20469;-68
2023/02/08 11:19:34;;;;;;;1999.90;999.90;;;12.20;73.10;;;;;;5109301;28;20467;-67
2023/02/08 11:22:04;;;;;;;1999.90;999.90;;;12.30;71.20;;;;;;5106675;28;20437;-66
2023/02/08 11:24:34;;;;;;;1999.90;999.90;;;12.50;69.90;;;;;;5108116;28;20484;-68
2023/02/08 11:27:02;;;;;;;1999.90;999.90;;;13.20;69.10;;;;;;5108823;28;20461;-66
2023/02/08 11:29:30;;;;;;;1999.90;999.90;;;13.10;66.90;;;;;;5108534;28;20950;-67
2023/02/08 11:32:02;;;;;;;1999.90;999.90;;;13.60;66.60;;;;;;5108789;28;20747;-67
2023/02/08 11:34:32;;;;;;;1999.90;999.90;;;14.10;64.30;;;;;;5108101;28;20790;-67
2023/02/08 11:37:02;;;;;;;1999.90;999.90;;;14.00;62.20;;;;;;5108288;28;21136;-67
2023/02/08 11:39:35;;;;;;;1999.90;999.90;;;14.00;62.30;;;;;;5108215;28;20881;-67
2023/02/08 11:42:03;;;;;;;1999.90;999.90;;;13.10;60.60;;;;;;5108470;28;20437;-67
2023/02/08 11:44:32;;;;;;;1999.90;999.90;;;12.10;61.30;;;;;;5108004;28;20438;-67
2023/02/08 11:47:01;;;;;;;1999.90;999.90;;;11.10;61.80;;;;;;5108114;28;20452;-67
2023/02/08 11:49:36;;;;;;;1999.90;999.90;;;10.10;64.50;;;;;;5108468;28;20541;-66
2023/02/08 11:52:05;;;;;;;1999.90;999.90;;;9.20;69.80;;;;;;5106510;28;21077;-66
2023/02/08 11:54:35;;;;;;;1999.90;999.90;;;8.50;71.70;;;;;;5111345;28;20843;-66
2023/02/08 11:57:03;;;;;;;1999.90;999.90;;;7.70;73.80;;;;;;5111961;28;20469;-69
2023/02/08 11:59:31;;;;;;;1999.90;999.90;;;7.30;75.70;;;;;;5112132;28;20537;-68
2023/02/08 12:01:57;;;;;;;1999.90;999.90;;;6.80;74.70;;;;;;5112353;28;20460;-69
2023/02/08 12:04:24;;;;;;;1999.90;999.90;;;6.50;77.80;;;;;;5111625;28;21013;-69
2023/02/08 12:07:15;;;;;;;1999.90;999.90;;;6.40;79.20;;;;;;5111872;28;20493;-68
2023/02/08 12:10:16;;;;;;;1999.90;999.90;;;6.20;79.70;;;;;;5110078;28;20892;-68
2023/02/08 12:12:55;;;;;;;1999.90;999.90;;;6.10;81.50;;;;;;5106821;28;20852;-69
2023/02/08 12:15:31;;;;;;;1999.90;999.90;;;5.90;83.20;;;;;;5107191;28;20997;-68